Time;durP1;ratioP1;P1;durP2;ratioP2;P2;SDS_P1;SDS_P2;PMS_P1;PMS_P2;Temp;Humidity;BMP_temperature;BMP_pressure;BME280_temperature;BME280_humidity;BME280_pressure;Samples;Min_cycle;Max_cycle;Signal;HPM_P1;HPM_P2
2023/12/10 00:01:00;;;;;;;4.50;4.10;;;5.30;99.90;;;4.40;100.00;98904.06;5073472;28;20307;-71
2023/12/10 00:03:29;;;;;;;6.37;4.20;;;5.30;99.90;;;4.42;100.00;98904.72;5073317;28;20274;-71
2023/12/10 00:05:58;;;;;;;5.53;4.10;;;5.40;99.90;;;4.44;100.00;98910.69;5073398;28;20220;-71
2023/12/10 00:08:40;;;;;;;4.27;3.87;;;5.40;99.90;;;4.45;100.00;98920.28;5073386;28;20189;-71
2023/12/10 00:11:08;;;;;;;4.17;3.60;;;5.40;99.90;;;4.47;100.00;98915.66;5073316;28;20209;-71
2023/12/10 00:13:37;;;;;;;4.20;3.20;;;5.40;99.90;;;4.46;100.00;98919.28;5073181;28;20328;-71
2023/12/10 00:16:06;;;;;;;5.83;3.10;;;5.40;99.90;;;4.50;100.00;98925.91;5073276;28;20296;-71
2023/12/10 00:18:34;;;;;;;4.10;3.47;;;5.40;99.90;;;4.57;100.00;98932.22;5073234;28;20283;-71
2023/12/10 00:21:05;;;;;;;4.47;2.77;;;5.50;99.90;;;4.55;100.00;98934.19;5073193;28;20244;-71
2023/12/10 00:23:33;;;;;;;4.67;2.80;;;5.50;99.90;;;4.57;100.00;98932.22;5073434;28;20263;-71
2023/12/10 00:26:01;;;;;;;5.50;3.20;;;5.50;99.90;;;4.58;100.00;98936.53;5072809;28;20565;-71
2023/12/10 00:28:29;;;;;;;5.40;2.60;;;5.50;99.90;;;4.59;100.00;98939.97;5073702;28;20288;-71
2023/12/10 00:30:58;;;;;;;4.13;2.90;;;5.50;99.90;;;4.62;100.00;98949.44;5072818;28;20620;-71
2023/12/10 00:33:26;;;;;;;6.53;3.40;;;5.60;99.90;;;4.64;100.00;98947.44;5072657;28;20320;-71
2023/12/10 00:35:54;;;;;;;5.50;2.53;;;5.60;99.90;;;4.66;100.00;98956.88;5073045;28;20202;-71
2023/12/10 00:38:24;;;;;;;4.00;2.67;;;5.60;99.90;;;4.68;100.00;98965.50;5073094;28;20237;-71
2023/12/10 00:40:52;;;;;;;5.47;2.60;;;5.60;99.90;;;4.69;100.00;98961.03;5072686;28;20245;-71
2023/12/10 00:43:20;;;;;;;4.57;2.73;;;5.60;99.90;;;4.72;100.00;98966.00;5072917;28;20225;-71
2023/12/10 00:45:49;;;;;;;4.90;2.80;;;5.70;99.90;;;4.74;100.00;98974.59;5073043;28;20217;-71
2023/12/10 00:48:17;;;;;;;10.10;2.87;;;5.70;99.90;;;4.75;100.00;98976.28;5072944;28;20228;-71
2023/12/10 00:50:46;;;;;;;5.30;3.00;;;5.70;99.90;;;4.76;100.00;98977.94;5072986;28;20210;-71
2023/12/10 00:53:14;;;;;;;5.47;3.00;;;5.70;99.90;;;4.78;100.00;98986.53;5072923;28;20249;-71
2023/12/10 00:55:44;;;;;;;4.90;3.30;;;5.70;99.90;;;4.81;100.00;98986.19;5072840;28;20275;-71
2023/12/10 00:58:13;;;;;;;5.83;3.33;;;5.70;99.90;;;4.81;100.00;98980.91;5072902;28;20639;-71
2023/12/10 01:00:42;;;;;;;8.50;3.97;;;5.80;99.90;;;4.82;100.00;98982.56;5072837;28;20208;-71
2023/12/10 01:03:10;;;;;;;10.80;4.13;;;5.80;99.90;;;4.83;100.00;98986.88;5072669;28;20226;-71
2023/12/10 01:05:39;;;;;;;5.73;3.77;;;5.80;99.90;;;4.84;100.00;98997.31;5074315;28;20228;-71
2023/12/10 01:08:07;;;;;;;9.17;4.70;;;5.80;99.90;;;4.89;100.00;98995.00;5076096;28;20616;-71
2023/12/10 01:10:35;;;;;;;8.50;3.83;;;5.80;99.90;;;4.89;100.00;99002.13;5076417;28;20197;-71
2023/12/10 01:13:05;;;;;;;11.13;4.57;;;5.80;99.90;;;4.89;100.00;99004.78;5075926;28;20807;-71
2023/12/10 01:15:33;;;;;;;8.97;4.60;;;5.80;99.90;;;4.89;100.00;99010.06;5076200;28;20230;-71
2023/12/10 01:18:02;;;;;;;8.93;4.70;;;5.80;99.90;;;4.95;100.00;99017.34;5076283;28;20217;-71
2023/12/10 01:20:32;;;;;;;14.70;6.33;;;5.90;99.90;;;4.99;100.00;99016.03;5076252;28;20212;-71
2023/12/10 01:23:04;;;;;;;25.20;6.37;;;5.90;99.90;;;5.08;100.00;99028.28;5076142;28;20320;-71
2023/12/10 01:25:32;;;;;;;27.43;6.37;;;6.00;99.90;;;5.25;100.00;99019.31;5076207;28;20194;-71
2023/12/10 01:28:00;;;;;;;30.27;6.27;;;6.20;99.90;;;5.32;100.00;99033.56;5076054;28;20215;-71
2023/12/10 01:30:30;;;;;;;20.33;5.67;;;6.30;99.90;;;5.38;100.00;99034.72;5075767;28;20296;-71
2023/12/10 01:32:59;;;;;;;33.67;6.47;;;6.30;99.90;;;5.57;100.00;99043.16;5075579;28;20263;-71
2023/12/10 01:35:29;;;;;;;27.33;6.43;;;6.50;99.90;;;5.58;100.00;99033.38;5075566;28;20221;-71
2023/12/10 01:37:58;;;;;;;25.70;6.87;;;6.60;99.90;;;5.66;100.00;99045.75;5075937;28;20240;-71
2023/12/10 01:40:26;;;;;;;21.07;6.30;;;6.60;99.90;;;5.81;100.00;99054.69;5075897;28;20237;-71
2023/12/10 01:42:54;;;;;;;25.13;5.80;;;6.70;99.90;;;5.90;100.00;99059.84;5075766;28;20308;-71
2023/12/10 01:45:23;;;;;;;24.93;6.13;;;6.80;99.90;;;5.93;100.00;99066.63;5075640;28;20201;-70
2023/12/10 01:47:53;;;;;;;32.10;6.23;;;6.90;99.90;;;5.96;100.00;99071.59;5075387;28;20577;-70
2023/12/10 01:50:23;;;;;;;25.80;6.10;;;7.00;99.90;;;5.98;100.00;99080.22;5075728;28;20234;-70
2023/12/10 01:52:51;;;;;;;31.23;5.47;;;7.00;99.90;;;6.06;100.00;99091.66;5075538;28;20286;-71
2023/12/10 01:55:20;;;;;;;29.47;6.23;;;7.10;99.90;;;6.04;100.00;99084.84;5075225;28;20316;-71
2023/12/10 01:57:48;;;;;;;18.17;5.60;;;7.00;99.90;;;6.06;100.00;99096.16;5075264;28;20301;-71
2023/12/10 02:00:18;;;;;;;26.43;5.97;;;7.10;99.90;;;6.19;100.00;99096.44;5075492;28;20201;-71
2023/12/10 02:02:47;;;;;;;28.77;5.70;;;7.20;99.90;;;6.14;100.00;99104.06;5076003;28;20245;-71
2023/12/10 02:05:18;;;;;;;24.27;6.47;;;7.20;99.90;;;6.22;100.00;99101.41;5075416;28;20232;-71
2023/12/10 02:07:46;;;;;;;20.73;5.43;;;7.20;99.90;;;6.18;100.00;99108.06;5075317;28;20209;-71
2023/12/10 02:10:14;;;;;;;34.13;6.00;;;7.20;99.90;;;6.19;100.00;99112.38;5075835;28;20296;-71
2023/12/10 02:12:46;;;;;;;25.97;5.53;;;7.20;99.90;;;6.22;100.00;99112.03;5074855;28;20232;-71
2023/12/10 02:15:16;;;;;;;30.07;5.57;;;7.20;99.90;;;6.30;100.00;99114.63;5074819;28;20205;-71
2023/12/10 02:17:45;;;;;;;26.20;5.80;;;7.30;99.90;;;6.34;100.00;99121.25;5074511;28;20217;-71
2023/12/10 02:20:16;;;;;;;30.00;5.53;;;7.40;99.90;;;6.32;100.00;99133.06;5074778;28;20708;-71
2023/12/10 02:22:53;;;;;;;32.50;6.17;;;7.30;99.90;;;6.32;100.00;99128.59;5074977;28;20236;-71
2023/12/10 02:25:32;;;;;;;27.07;5.77;;;7.30;99.90;;;6.38;100.00;99127.06;5075050;28;20280;-71
2023/12/10 02:28:02;;;;;;;31.53;6.37;;;7.30;99.90;;;6.38;100.00;99137.69;5074980;28;20198;-71
2023/12/10 02:30:31;;;;;;;34.40;6.17;;;7.40;99.90;;;6.44;100.00;99143.16;5074860;28;20206;-71
2023/12/10 02:32:59;;;;;;;33.93;6.37;;;7.40;99.90;;;6.47;100.00;99148.13;5075096;28;20264;-71
2023/12/10 02:35:28;;;;;;;25.73;6.17;;;7.50;99.90;;;6.50;100.00;99150.47;5074733;28;20230;-71
2023/12/10 02:37:56;;;;;;;29.17;5.47;;;7.50;99.90;;;6.54;100.00;99154.41;5075042;28;20232;-71
2023/12/10 02:40:25;;;;;;;29.83;5.73;;;7.50;99.90;;;6.52;100.00;99153.75;5074693;28;20212;-71
2023/12/10 02:42:54;;;;;;;30.73;6.00;;;7.50;99.90;;;6.47;100.00;99153.44;5074559;28;20257;-71
2023/12/10 02:45:23;;;;;;;23.93;5.50;;;7.40;99.90;;;6.47;100.00;99158.75;5074607;28;20212;-71
2023/12/10 02:47:51;;;;;;;24.37;5.87;;;7.40;99.90;;;6.45;100.00;99158.09;5074519;28;20292;-71
2023/12/10 02:50:19;;;;;;;31.77;6.20;;;7.40;99.90;;;6.50;100.00;99162.91;5074375;28;20237;-71
2023/12/10 02:52:48;;;;;;;33.50;6.57;;;7.40;99.90;;;6.46;100.00;99162.44;5074395;28;20316;-71
2023/12/10 02:55:16;;;;;;;31.53;6.40;;;7.40;99.90;;;6.40;100.00;99173.75;5074329;28;20260;-71
2023/12/10 02:57:44;;;;;;;37.17;6.00;;;7.40;99.90;;;6.41;100.00;99169.25;5073968;28;20636;-71
2023/12/10 03:00:16;;;;;;;34.73;6.43;;;7.40;99.90;;;6.45;100.00;99168.75;5074339;28;20201;-71
2023/12/10 03:02:44;;;;;;;34.17;6.83;;;7.40;99.90;;;6.44;100.00;99180.38;5074248;28;20310;-71
2023/12/10 03:05:13;;;;;;;33.57;5.77;;;7.40;99.90;;;6.40;100.00;99181.75;5074203;28;20205;-71
2023/12/10 03:07:41;;;;;;;26.17;5.43;;;7.30;99.90;;;6.38;100.00;99189.03;5074220;28;20201;-70
2023/12/10 03:10:10;;;;;;;23.90;5.37;;;7.30;99.90;;;6.36;100.00;99199.03;5074164;28;20205;-70
2023/12/10 03:12:38;;;;;;;29.13;6.13;;;7.30;99.90;;;6.41;100.00;99201.97;5073655;28;20671;-70
2023/12/10 03:15:07;;;;;;;26.90;6.30;;;7.40;99.90;;;6.41;100.00;99201.16;5073963;28;20228;-70
2023/12/10 03:17:37;;;;;;;37.03;6.43;;;7.30;99.90;;;6.45;100.00;99208.63;5073998;28;20249;-70
2023/12/10 03:20:09;;;;;;;30.67;5.87;;;7.40;99.90;;;6.41;100.00;99204.63;5073626;28;20598;-70
2023/12/10 03:22:37;;;;;;;36.70;6.63;;;7.40;99.90;;;6.44;100.00;99201.63;5073877;28;20280;-70
2023/12/10 03:25:07;;;;;;;34.00;5.77;;;7.40;99.90;;;6.40;100.00;99195.03;5073887;28;20198;-70
2023/12/10 03:27:35;;;;;;;28.77;5.87;;;7.30;99.90;;;6.44;100.00;99201.63;5073769;28;20213;-70
2023/12/10 03:30:04;;;;;;;26.37;5.63;;;7.40;99.90;;;6.49;100.00;99199.31;5072947;28;20244;-70
2023/12/10 03:32:33;;;;;;;37.93;7.27;;;7.40;99.90;;;6.52;100.00;99209.59;5073445;28;20241;-70
2023/12/10 03:35:02;;;;;;;29.97;6.60;;;7.50;99.90;;;6.54;100.00;99204.13;5073648;28;20259;-70
2023/12/10 03:37:31;;;;;;;30.77;5.67;;;7.50;99.90;;;6.50;100.00;99213.44;5073739;28;20383;-70
2023/12/10 03:39:59;;;;;;;27.23;5.83;;;7.50;99.90;;;6.46;100.00;99210.28;5073718;28;20241;-70
2023/12/10 03:42:27;;;;;;;32.60;5.70;;;7.40;99.90;;;6.48;100.00;99213.59;5073489;28;20237;-70
2023/12/10 03:44:57;;;;;;;32.80;6.13;;;7.40;99.90;;;6.47;100.00;99206.59;5073628;28;20202;-70
2023/12/10 03:47:25;;;;;;;30.07;6.03;;;7.40;99.90;;;6.53;100.00;99208.59;5073574;28;20209;-70
2023/12/10 03:49:56;;;;;;;30.93;6.20;;;7.40;99.90;;;6.62;100.00;99209.38;5073501;28;20205;-70
2023/12/10 03:52:25;;;;;;;27.67;6.33;;;7.60;99.90;;;6.71;100.00;99207.53;5073167;28;20567;-70
2023/12/10 03:54:54;;;;;;;30.00;5.93;;;7.70;99.90;;;6.72;100.00;99219.81;5073510;28;20228;-70
2023/12/10 03:57:22;;;;;;;30.23;5.27;;;7.60;99.90;;;6.71;100.00;99212.84;5073037;28;20765;-70
2023/12/10 03:59:51;;;;;;;31.67;6.37;;;7.60;99.90;;;6.74;100.00;99215.16;5073449;28;20217;-70
2023/12/10 04:02:19;;;;;;;34.83;6.20;;;7.60;99.90;;;6.70;100.00;99213.84;5073305;28;20225;-70
2023/12/10 04:04:47;;;;;;;27.00;6.30;;;7.60;99.90;;;6.75;100.00;99219.47;5073516;28;20229;-70
2023/12/10 04:07:15;;;;;;;30.73;6.17;;;7.70;99.90;;;6.75;100.00;99227.44;5073463;28;20237;-70
2023/12/10 04:09:45;;;;;;;28.20;6.43;;;7.60;99.90;;;6.70;100.00;99222.66;5073170;28;20759;-70
2023/12/10 04:12:13;;;;;;;28.07;6.80;;;7.60;99.90;;;6.73;100.00;99226.78;5073270;28;20320;-70
2023/12/10 04:14:42;;;;;;;28.50;6.50;;;7.70;99.90;;;6.78;100.00;99229.78;5073192;28;20209;-70
2023/12/10 04:17:10;;;;;;;31.47;6.20;;;7.70;99.90;;;6.77;100.00;99223.63;5073556;28;20272;-70
2023/12/10 04:19:38;;;;;;;28.57;6.00;;;7.70;99.90;;;6.78;100.00;99235.91;5072956;28;20202;-71
2023/12/10 04:22:06;;;;;;;30.90;5.97;;;7.70;99.90;;;6.79;100.00;99236.75;5073173;28;20274;-71
2023/12/10 04:24:35;;;;;;;35.77;6.87;;;7.70;99.90;;;6.79;100.00;99234.91;5073175;28;20291;-71
2023/12/10 04:27:05;;;;;;;28.70;6.10;;;7.70;99.90;;;6.75;100.00;99235.41;5073203;28;20209;-71
2023/12/10 04:29:33;;;;;;;31.20;6.90;;;7.70;99.90;;;6.71;100.00;99242.13;5072864;28;20300;-71
2023/12/10 04:32:02;;;;;;;30.30;6.93;;;7.60;99.90;;;6.73;100.00;99243.59;5072782;28;20229;-71
2023/12/10 04:34:30;;;;;;;29.17;6.47;;;7.60;99.90;;;6.71;100.00;99245.59;5073168;28;20190;-71
2023/12/10 04:36:59;;;;;;;35.57;6.10;;;7.60;99.90;;;6.70;100.00;99248.41;5073048;28;20228;-71
2023/12/10 04:39:27;;;;;;;32.13;7.03;;;7.60;99.90;;;6.68;100.00;99251.25;5073082;28;20206;-71
2023/12/10 04:41:56;;;;;;;31.17;6.03;;;7.60;99.90;;;6.70;100.00;99246.59;5076299;28;20729;-71
2023/12/10 04:44:25;;;;;;;23.40;5.60;;;7.60;99.90;;;6.69;100.00;99249.41;5076966;28;20255;-71
2023/12/10 04:46:53;;;;;;;34.57;7.00;;;7.60;99.90;;;6.66;100.00;99247.09;5076891;28;20212;-71
2023/12/10 04:49:22;;;;;;;28.90;6.50;;;7.50;99.90;;;6.63;100.00;99251.78;5076859;28;20209;-71
2023/12/10 04:51:50;;;;;;;23.20;6.07;;;7.50;99.90;;;6.61;100.00;99248.44;5076678;28;20236;-71
2023/12/10 04:54:18;;;;;;;28.83;7.10;;;7.50;99.90;;;6.62;100.00;99244.78;5076753;28;20205;-71
2023/12/10 04:56:47;;;;;;;26.97;6.63;;;7.50;99.90;;;6.61;100.00;99245.78;5076652;28;20225;-71
2023/12/10 04:59:15;;;;;;;31.83;7.90;;;7.50;99.90;;;6.64;100.00;99245.44;5076274;28;20733;-71
2023/12/10 05:01:44;;;;;;;27.83;6.33;;;7.50;99.90;;;6.62;100.00;99247.44;5076245;28;20707;-71
2023/12/10 05:04:13;;;;;;;26.33;6.63;;;7.60;99.90;;;6.64;100.00;99245.44;5076550;28;20203;-71
2023/12/10 05:06:41;;;;;;;23.97;6.23;;;7.50;99.90;;;6.64;100.00;99242.78;5076536;28;20205;-71
2023/12/10 05:09:10;;;;;;;31.93;6.30;;;7.60;99.90;;;6.61;100.00;99245.78;5076120;28;20732;-71
2023/12/10 05:11:39;;;;;;;22.53;6.00;;;7.50;99.90;;;6.60;100.00;99244.16;5076378;28;20205;-71
2023/12/10 05:14:07;;;;;;;25.43;6.40;;;7.50;99.90;;;6.59;100.00;99237.16;5076369;28;20213;-71
2023/12/10 05:16:35;;;;;;;29.23;7.50;;;7.50;99.90;;;6.58;100.00;99246.13;5076222;28;20229;-71
2023/12/10 05:19:05;;;;;;;28.47;6.23;;;7.50;99.90;;;6.57;100.00;99249.81;5076271;28;20237;-71
2023/12/10 05:21:34;;;;;;;24.70;6.00;;;7.40;99.90;;;6.57;100.00;99257.78;5076171;28;20209;-71
2023/12/10 05:24:03;;;;;;;27.77;6.13;;;7.40;99.90;;;6.57;100.00;99255.13;5076289;28;20205;-71
2023/12/10 05:26:31;;;;;;;27.53;6.43;;;7.50;99.90;;;6.60;100.00;99264.59;5075791;28;20744;-71
2023/12/10 05:28:59;;;;;;;22.67;5.73;;;7.50;99.90;;;6.59;100.00;99252.28;5076134;28;20237;-71
2023/12/10 05:31:27;;;;;;;22.97;5.60;;;7.50;99.90;;;6.59;100.00;99247.78;5075967;28;20252;-71
2023/12/10 05:33:56;;;;;;;20.60;5.80;;;7.50;99.90;;;6.60;100.00;99244.16;5075631;28;20241;-71
2023/12/10 05:36:25;;;;;;;27.13;5.70;;;7.50;99.90;;;6.62;100.00;99258.09;5075907;28;20808;-71
2023/12/10 05:38:54;;;;;;;17.90;5.37;;;7.50;99.90;;;6.62;100.00;99247.44;5075573;28;20577;-72
2023/12/10 05:41:22;;;;;;;22.10;5.93;;;7.50;99.90;;;6.64;100.00;99245.44;5075617;28;20650;-72
2023/12/10 05:43:50;;;;;;;24.90;5.97;;;7.50;99.90;;;6.63;100.00;99243.78;5075859;28;20288;-72
2023/12/10 05:46:18;;;;;;;25.33;6.07;;;7.50;99.90;;;6.67;100.00;99249.59;5075487;28;20244;-72
2023/12/10 05:48:47;;;;;;;19.77;5.73;;;7.60;99.90;;;6.68;100.00;99247.78;5075719;28;20210;-72
2023/12/10 05:51:15;;;;;;;21.53;5.73;;;7.50;99.90;;;6.67;100.00;99254.09;5075193;28;20216;-71
2023/12/10 05:53:45;;;;;;;22.90;5.50;;;7.50;99.90;;;6.63;100.00;99249.13;5075100;28;20283;-71
2023/12/10 05:56:13;;;;;;;18.17;5.43;;;7.50;99.90;;;6.70;100.00;99254.56;5075522;28;20233;-71
2023/12/10 05:58:41;;;;;;;18.33;5.23;;;7.60;99.90;;;6.75;100.00;99256.69;5075214;28;20296;-71
2023/12/10 06:01:10;;;;;;;16.73;4.43;;;7.60;99.90;;;6.76;100.00;99258.38;5075552;28;20205;-71
2023/12/10 06:03:38;;;;;;;18.90;5.07;;;7.70;99.90;;;6.87;100.00;99260.66;5075397;28;20225;-71
2023/12/10 06:06:07;;;;;;;16.27;3.70;;;7.70;99.90;;;6.84;100.00;99255.69;5075406;28;20201;-71
2023/12/10 06:08:35;;;;;;;15.47;4.17;;;7.70;99.90;;;6.77;100.00;99260.03;5075332;28;20209;-71
2023/12/10 06:11:05;;;;;;;16.43;4.37;;;7.70;99.90;;;6.74;100.00;99255.06;5075006;28;20305;-71
2023/12/10 06:13:34;;;;;;;13.87;3.73;;;7.60;99.90;;;6.72;100.00;99257.03;5075166;28;20228;-71
2023/12/10 06:16:02;;;;;;;15.57;4.17;;;7.60;99.90;;;6.72;100.00;99262.38;5075277;28;20291;-71
2023/12/10 06:18:30;;;;;;;16.70;4.67;;;7.60;99.90;;;6.73;100.00;99269.34;5074724;28;20229;-71
2023/12/10 06:20:58;;;;;;;15.33;4.27;;;7.60;99.90;;;6.76;100.00;99261.03;5075114;28;20205;-71
2023/12/10 06:23:27;;;;;;;18.47;4.60;;;7.60;99.90;;;6.72;100.00;99273.00;5075014;28;20314;-71
2023/12/10 06:25:56;;;;;;;12.53;3.73;;;7.60;99.90;;;6.73;100.00;99272.00;5075043;28;20201;-71
2023/12/10 06:28:26;;;;;;;14.40;4.13;;;7.60;99.90;;;6.69;100.00;99279.50;5075043;28;20292;-71
2023/12/10 06:30:55;;;;;;;18.93;4.93;;;7.60;99.90;;;6.67;100.00;99280.69;5074991;28;20288;-71
2023/12/10 06:33:23;;;;;;;11.87;3.37;;;7.50;99.90;;;6.67;100.00;99283.34;5074388;28;20233;-71
2023/12/10 06:35:52;;;;;;;14.80;3.40;;;7.50;99.90;;;6.64;100.00;99290.63;5074579;28;20759;-71
2023/12/10 06:38:20;;;;;;;14.30;3.40;;;7.50;99.90;;;6.62;100.00;99289.16;5074725;28;20261;-71
2023/12/10 06:40:48;;;;;;;10.20;2.97;;;7.50;99.90;;;6.58;100.00;99290.50;5074760;28;20209;-71
2023/12/10 06:43:16;;;;;;;12.50;3.90;;;7.50;99.90;;;6.55;100.00;99304.97;5074590;28;20236;-71
2023/12/10 06:45:47;;;;;;;11.17;2.90;;;7.40;99.90;;;6.54;100.00;99292.66;5074581;28;20229;-71
2023/12/10 06:48:16;;;;;;;6.37;2.93;;;7.40;99.90;;;6.55;100.00;99302.31;5074312;28;20632;-71
2023/12/10 06:50:45;;;;;;;11.10;3.27;;;7.40;99.90;;;6.54;100.00;99303.31;5074228;28;20548;-71
2023/12/10 06:53:13;;;;;;;12.00;2.97;;;7.40;99.90;;;6.53;100.00;99309.63;5074383;28;20230;-71
2023/12/10 06:55:41;;;;;;;10.43;3.40;;;7.40;99.90;;;6.50;100.00;99312.63;5074125;28;20659;-71
2023/12/10 06:58:09;;;;;;;13.50;3.23;;;7.40;99.90;;;6.49;100.00;99305.66;5074283;28;20227;-71
2023/12/10 07:00:38;;;;;;;8.23;2.80;;;7.40;99.90;;;6.48;100.00;99311.97;5074304;28;20236;-71
2023/12/10 07:03:07;;;;;;;9.73;3.07;;;7.40;99.90;;;6.45;100.00;99309.63;5074042;28;20279;-71
2023/12/10 07:05:36;;;;;;;12.27;3.27;;;7.30;99.90;;;6.44;100.00;99309.78;5073901;28;20615;-71
2023/12/10 07:08:05;;;;;;;9.97;3.93;;;7.30;99.90;;;6.40;100.00;99309.34;5074143;28;20207;-71
2023/12/10 07:10:33;;;;;;;9.20;3.10;;;7.30;99.90;;;6.41;100.00;99321.59;5074187;28;20247;-71
2023/12/10 07:13:01;;;;;;;15.67;5.47;;;7.30;99.90;;;6.41;100.00;99318.13;5073985;28;20312;-71
2023/12/10 07:15:30;;;;;;;10.13;4.20;;;7.30;99.90;;;6.37;100.00;99320.28;5074022;28;20305;-71
2023/12/10 07:17:58;;;;;;;12.77;3.63;;;7.20;99.90;;;6.39;100.00;99320.97;5073907;28;20234;-71
2023/12/10 07:20:28;;;;;;;10.10;3.93;;;7.30;99.90;;;6.38;100.00;99318.44;5073933;28;20201;-71
2023/12/10 07:22:56;;;;;;;7.47;2.67;;;7.30;99.90;;;6.37;100.00;99324.78;5073834;28;20316;-71
2023/12/10 07:25:24;;;;;;;9.97;2.80;;;7.30;99.90;;;6.39;100.00;99326.28;5073645;28;20615;-71
2023/12/10 07:27:53;;;;;;;7.87;2.77;;;7.30;99.90;;;6.42;100.00;99325.09;5073834;28;20255;-71
2023/12/10 07:30:21;;;;;;;10.23;3.13;;;7.30;99.90;;;6.38;100.00;99332.56;5073823;28;20209;-71
2023/12/10 07:32:49;;;;;;;11.10;2.93;;;7.30;99.90;;;6.40;100.00;99327.09;5073361;28;20233;-71
2023/12/10 07:35:18;;;;;;;8.70;2.77;;;7.30;99.90;;;6.39;100.00;99331.59;5073771;28;20213;-71
2023/12/10 07:37:47;;;;;;;7.00;2.53;;;7.30;99.90;;;6.38;100.00;99335.22;5074057;28;20699;-71
2023/12/10 07:40:16;;;;;;;8.53;2.90;;;7.20;99.90;;;6.36;100.00;99331.94;5073737;28;20278;-71
2023/12/10 07:42:44;;;;;;;9.70;4.17;;;7.20;99.90;;;6.36;100.00;99342.56;5073200;28;20225;-71
2023/12/10 07:45:13;;;;;;;9.37;4.10;;;7.20;99.90;;;6.36;100.00;99334.59;5073595;28;20205;-71
2023/12/10 07:47:41;;;;;;;11.60;3.97;;;7.30;99.90;;;6.37;100.00;99330.09;5073145;28;20300;-71
2023/12/10 07:50:10;;;;;;;9.70;2.70;;;7.30;99.90;;;6.37;100.00;99336.22;5073202;28;20647;-71
2023/12/10 07:52:38;;;;;;;8.67;2.80;;;7.30;99.90;;;6.37;100.00;99335.41;5073462;28;20229;-71
2023/12/10 07:55:08;;;;;;;8.27;3.00;;;7.20;99.90;;;6.38;100.00;99335.22;5073544;28;20296;-71
2023/12/10 07:57:37;;;;;;;7.97;2.83;;;7.20;99.90;;;6.38;100.00;99335.22;5073643;28;20311;-71
2023/12/10 08:00:07;;;;;;;7.77;2.90;;;7.30;99.90;;;6.39;100.00;99352.84;5073132;28;20609;-71
2023/12/10 08:02:35;;;;;;;9.33;2.77;;;7.30;99.90;;;6.40;100.00;99343.88;5073030;28;20687;-71
2023/12/10 08:05:04;;;;;;;10.33;2.77;;;7.30;99.90;;;6.41;100.00;99345.53;5073407;28;20248;-71
2023/12/10 08:07:32;;;;;;;7.23;2.57;;;7.30;99.90;;;6.45;100.00;99346.03;5073362;28;20201;-71
2023/12/10 08:10:00;;;;;;;6.37;2.63;;;7.30;99.90;;;6.43;100.00;99348.88;5073070;28;20670;-71
2023/12/10 08:12:30;;;;;;;10.07;2.60;;;7.30;99.90;;;6.42;100.00;99341.03;5073312;28;20233;-71
2023/12/10 08:15:01;;;;;;;7.77;2.50;;;7.30;99.90;;;6.42;100.00;99347.19;5073889;28;20296;-70
2023/12/10 08:17:29;;;;;;;7.27;2.30;;;7.30;99.90;;;6.44;100.00;99353.16;5077074;28;20255;-70
2023/12/10 08:19:57;;;;;;;8.77;2.70;;;7.30;99.90;;;6.41;100.00;99355.31;5077454;28;20213;-70
2023/12/10 08:22:26;;;;;;;7.33;2.60;;;7.30;99.90;;;6.45;100.00;99368.13;5077322;28;20316;-70
2023/12/10 08:24:55;;;;;;;7.43;2.50;;;7.30;99.90;;;6.44;100.00;99361.13;5077329;28;20216;-70
2023/12/10 08:27:23;;;;;;;7.90;2.37;;;7.30;99.90;;;6.49;100.00;99364.16;5077384;28;20205;-70
2023/12/10 08:29:53;;;;;;;7.80;2.97;;;7.40;99.90;;;6.51;100.00;99359.47;5077256;28;20213;-70
2023/12/10 08:32:21;;;;;;;4.77;2.67;;;7.40;99.90;;;6.51;100.00;99362.13;5077039;28;20267;-71
2023/12/10 08:34:50;;;;;;;7.90;2.80;;;7.40;99.90;;;6.49;100.00;99364.16;5077133;28;20267;-71
2023/12/10 08:37:18;;;;;;;10.63;2.93;;;7.40;99.90;;;6.49;100.00;99364.16;5076747;28;20209;-71
2023/12/10 08:39:50;;;;;;;9.73;2.87;;;7.30;99.90;;;6.55;100.00;99363.47;5076965;28;20312;-71
2023/12/10 08:42:18;;;;;;;7.50;2.83;;;7.40;99.90;;;6.52;100.00;99366.47;5076934;28;20225;-71
2023/12/10 08:44:46;;;;;;;5.13;2.57;;;7.40;99.90;;;6.53;100.00;99370.78;5076605;28;20228;-71
2023/12/10 08:47:16;;;;;;;8.30;2.50;;;7.40;99.90;;;6.51;100.00;99366.63;5076635;28;20742;-71
2023/12/10 08:49:45;;;;;;;9.10;2.77;;;7.40;99.90;;;6.49;100.00;99366.81;5076804;28;20228;-71
2023/12/10 08:52:13;;;;;;;10.67;2.73;;;7.40;99.90;;;6.48;100.00;99362.47;5076630;28;20225;-71
2023/12/10 08:54:42;;;;;;;8.13;2.63;;;7.40;99.90;;;6.46;100.00;99364.47;5076670;28;20209;-71
2023/12/10 08:57:10;;;;;;;7.87;2.53;;;7.30;99.90;;;6.46;100.00;99388.41;5076617;28;20201;-71
2023/12/10 08:59:39;;;;;;;9.37;2.53;;;7.40;99.90;;;6.44;100.00;99381.56;5076216;28;20734;-71
2023/12/10 09:02:07;;;;;;;8.03;2.70;;;7.30;99.90;;;6.45;100.00;99392.06;5076535;28;20357;-71
2023/12/10 09:04:37;;;;;;;10.30;3.10;;;7.30;99.90;;;6.44;100.00;99387.72;5076531;28;20212;-71
2023/12/10 09:07:05;;;;;;;9.10;2.63;;;7.30;99.90;;;6.43;100.00;99388.75;5076492;28;20205;-71
2023/12/10 09:09:33;;;;;;;10.63;2.80;;;7.30;99.90;;;6.46;100.00;99396.38;5076441;28;20297;-71
2023/12/10 09:12:01;;;;;;;12.47;4.60;;;7.30;99.90;;;6.44;100.00;99392.22;5076001;28;20235;-71
2023/12/10 09:14:30;;;;;;;23.67;11.43;;;7.30;99.90;;;6.45;100.00;99400.03;5076327;28;20293;-71
2023/12/10 09:16:58;;;;;;;15.67;9.20;;;7.30;99.90;;;6.46;100.00;99391.06;5076361;28;20256;-71
2023/12/10 09:19:29;;;;;;;15.07;5.27;;;7.30;99.90;;;6.50;100.00;99397.72;5075965;28;20702;-71
2023/12/10 09:21:59;;;;;;;14.27;6.23;;;7.30;99.90;;;6.51;100.00;99391.38;5076229;28;20252;-71
2023/12/10 09:24:27;;;;;;;18.40;8.73;;;7.40;99.90;;;6.51;100.00;99394.03;5076187;28;20205;-71
2023/12/10 09:26:56;;;;;;;8.63;5.37;;;7.40;99.90;;;6.54;100.00;99399.03;5076069;28;20205;-71
2023/12/10 09:29:25;;;;;;;10.50;5.43;;;7.40;99.90;;;6.55;100.00;99387.41;5076102;28;20205;-71
2023/12/10 09:31:53;;;;;;;10.67;3.90;;;7.40;99.90;;;6.60;100.00;99408.19;5075887;28;20222;-71
2023/12/10 09:34:21;;;;;;;8.17;2.80;;;7.50;99.90;;;6.61;100.00;99400.00;5075985;28;20280;-71
2023/12/10 09:36:53;;;;;;;8.90;3.10;;;7.50;99.90;;;6.70;100.00;99397.34;5076013;28;20280;-71
2023/12/10 09:39:24;;;;;;;10.93;3.40;;;7.60;99.90;;;6.71;100.00;99405.19;5075555;28;20711;-71
2023/12/10 09:41:52;;;;;;;7.50;3.17;;;7.60;99.90;;;6.72;100.00;99390.03;5075821;28;20248;-71
2023/12/10 09:44:21;;;;;;;8.63;3.30;;;7.60;99.90;;;6.77;100.00;99382.38;5075809;28;20275;-71
2023/12/10 09:46:50;;;;;;;9.50;3.90;;;7.70;99.90;;;6.78;100.00;99394.69;5075805;28;20300;-71
2023/12/10 09:49:21;;;;;;;7.63;3.00;;;7.60;99.90;;;6.79;100.00;99406.97;5075360;28;20577;-71
2023/12/10 09:51:49;;;;;;;9.93;2.70;;;7.60;99.90;;;6.87;100.00;99407.81;5075701;28;20316;-71
2023/12/10 09:54:20;;;;;;;9.43;2.67;;;7.70;99.90;;;6.88;100.00;99412.13;5075653;28;20209;-71
2023/12/10 09:56:50;;;;;;;7.27;2.50;;;7.70;99.90;;;6.91;100.00;99408.31;5075304;28;20237;-71
2023/12/10 09:59:18;;;;;;;7.80;2.67;;;7.80;99.90;;;6.91;100.00;99416.28;5075151;28;20316;-71
2023/12/10 10:01:50;;;;;;;11.33;2.27;;;7.80;99.90;;;6.89;100.00;99418.25;5075469;28;20259;-71
2023/12/10 10:04:18;;;;;;;7.80;2.87;;;7.80;99.90;;;6.91;100.00;99433.09;5075467;28;20197;-71
2023/12/10 10:06:47;;;;;;;9.97;3.10;;;7.80;99.90;;;6.94;100.00;99426.59;5075410;28;20208;-71
2023/12/10 10:09:16;;;;;;;9.50;2.53;;;7.80;99.90;;;6.96;100.00;99435.22;5075333;28;20205;-71
2023/12/10 10:12:01;;;;;;;9.13;2.80;;;7.80;99.90;;;7.00;100.00;99441.88;5074997;28;20594;-71
2023/12/10 10:14:29;;;;;;;10.93;2.97;;;7.90;99.90;;;7.01;100.00;99446.19;5075205;28;20208;-71
2023/12/10 10:16:57;;;;;;;9.57;2.83;;;7.90;99.90;;;6.98;100.00;99442.06;5075216;28;20201;-71
2023/12/10 10:19:27;;;;;;;6.70;2.73;;;7.90;99.90;;;6.98;100.00;99449.19;5075045;28;20229;-71
2023/12/10 10:21:56;;;;;;;12.60;2.90;;;7.90;99.90;;;6.99;100.00;99454.34;5074791;28;20225;-71
2023/12/10 10:24:24;;;;;;;7.73;2.97;;;7.90;99.90;;;7.01;100.00;99470.16;5074772;28;20205;-71
2023/12/10 10:26:54;;;;;;;6.57;2.03;;;7.90;99.90;;;7.07;100.00;99474.78;5075007;28;20205;-71
2023/12/10 10:29:25;;;;;;;11.47;3.23;;;7.90;99.90;;;7.09;100.00;99467.44;5074699;28;20292;-71